createdAt,value
2023-11-23T00:00:14.191Z,84.007
2023-11-23T00:01:14.186Z,84.154
2023-11-23T00:02:15.409Z,84.314
2023-11-23T00:03:14.096Z,84.143
2023-11-23T00:04:14.937Z,84.227
2023-11-23T00:06:14.508Z,84.188
2023-11-23T00:07:14.103Z,84.074
2023-11-23T00:08:14.673Z,84.007
2023-11-23T00:09:14.340Z,84.061
2023-11-23T00:11:14.480Z,84.097
2023-11-23T00:12:14.232Z,84.122
2023-11-23T00:13:14.833Z,84.145
2023-11-23T00:14:14.418Z,84.093
2023-11-23T00:15:14.023Z,83.935
2023-11-23T00:16:15.039Z,84.023
2023-11-23T00:17:14.730Z,84.406
2023-11-23T00:18:14.448Z,84.600
2023-11-23T00:21:14.491Z,84.713
2023-11-23T00:22:14.001Z,84.845
2023-11-23T00:23:14.557Z,84.785
2023-11-23T00:24:14.271Z,85.148
2023-11-23T00:25:14.867Z,85.087
2023-11-23T00:26:14.344Z,85.550
2023-11-23T00:27:15.120Z,85.548
2023-11-23T00:28:14.833Z,85.775
2023-11-23T00:29:14.353Z,85.806
2023-11-23T00:30:15.035Z,85.709
2023-11-23T00:31:14.716Z,85.733
2023-11-23T00:34:14.761Z,85.842
2023-11-23T00:35:14.440Z,85.865
2023-11-23T00:38:14.202Z,85.651
2023-11-23T00:39:15.271Z,85.958
2023-11-23T00:40:14.859Z,85.920
2023-11-23T00:42:14.451Z,86.033
2023-11-23T00:44:14.794Z,86.031
2023-11-23T00:45:14.524Z,85.909
2023-11-23T00:46:14.234Z,86.094
2023-11-23T00:47:14.986Z,85.962
2023-11-23T00:48:14.797Z,86.014
2023-11-23T00:50:14.172Z,86.702
2023-11-23T00:51:14.926Z,86.554
2023-11-23T00:52:14.468Z,86.441
2023-11-23T00:53:13.936Z,86.756
2023-11-23T00:54:14.712Z,86.735
2023-11-23T00:55:14.366Z,86.752
2023-11-23T00:56:13.868Z,87.126
2023-11-23T00:57:14.578Z,86.964
2023-11-23T00:58:14.227Z,87.111
2023-11-23T00:59:14.760Z,87.187
2023-11-23T01:00:14.571Z,87.225
2023-11-23T01:01:14.730Z,87.042
2023-11-23T01:02:15.271Z,86.893
2023-11-23T01:03:14.629Z,86.939
2023-11-23T01:04:14.957Z,86.767
2023-11-23T01:05:14.527Z,86.725
2023-11-23T01:06:14.111Z,86.575
2023-11-23T01:07:14.662Z,86.538
2023-11-23T01:10:14.609Z,86.428
2023-11-23T01:11:14.128Z,86.538
2023-11-23T01:12:14.882Z,86.523
2023-11-23T01:13:14.507Z,86.412
2023-11-23T01:14:14.461Z,86.401
2023-11-23T01:16:14.813Z,86.332
2023-11-23T01:17:14.404Z,85.928
2023-11-23T01:18:13.985Z,85.920
2023-11-23T01:19:14.816Z,85.861
2023-11-23T01:20:14.334Z,85.991
2023-11-23T01:23:14.396Z,85.848
2023-11-23T01:24:14.003Z,85.896
2023-11-23T01:25:14.627Z,86.010
2023-11-23T01:26:14.155Z,86.035
2023-11-23T01:27:14.838Z,86.119
2023-11-23T01:28:14.352Z,86.058
2023-11-23T01:29:14.879Z,86.145
2023-11-23T01:30:14.576Z,85.974
2023-11-23T01:32:14.899Z,86.086
2023-11-23T01:33:14.845Z,86.107
2023-11-23T01:34:15.501Z,86.100
2023-11-23T01:35:14.573Z,86.184
2023-11-23T01:37:14.658Z,86.199
2023-11-23T01:38:14.156Z,86.348
2023-11-23T01:39:14.885Z,86.475
2023-11-23T01:40:14.585Z,86.330
2023-11-23T01:41:14.071Z,86.407
2023-11-23T01:42:15.102Z,86.573
2023-11-23T01:43:14.783Z,86.565
2023-11-23T01:44:14.327Z,86.370
2023-11-23T01:45:15.020Z,86.428
2023-11-23T01:46:14.990Z,86.302
2023-11-23T01:47:14.745Z,86.552
2023-11-23T01:48:14.664Z,86.355
2023-11-23T01:50:17.298Z,86.582
2023-11-23T01:52:14.814Z,86.504
2023-11-23T01:53:14.372Z,86.592
2023-11-23T01:54:15.039Z,86.330
2023-11-23T01:55:14.726Z,86.338
2023-11-23T01:56:14.225Z,86.218
2023-11-23T01:57:14.851Z,86.018
2023-11-23T01:58:14.438Z,86.035
2023-11-23T01:59:13.933Z,86.052
2023-11-23T02:00:14.775Z,85.953
2023-11-23T02:01:14.433Z,86.058
2023-11-23T02:02:14.186Z,85.773
2023-11-23T02:03:15.467Z,86.021
2023-11-23T02:04:14.290Z,86.042
2023-11-23T02:05:13.950Z,85.863
2023-11-23T02:06:14.577Z,85.669
2023-11-23T02:07:14.380Z,85.791
2023-11-23T02:08:14.839Z,85.711
2023-11-23T02:09:14.545Z,85.695
2023-11-23T02:10:14.279Z,85.693
2023-11-23T02:11:14.839Z,85.728
2023-11-23T02:12:14.491Z,85.785
2023-11-23T02:13:14.196Z,85.814
2023-11-23T02:14:14.716Z,85.747
2023-11-23T02:15:14.802Z,85.714
2023-11-23T02:17:14.163Z,85.640
2023-11-23T02:18:15.304Z,85.430
2023-11-23T02:19:13.950Z,85.562
2023-11-23T02:20:14.504Z,85.623
2023-11-23T02:21:14.019Z,85.571
2023-11-23T02:22:14.723Z,85.564
2023-11-23T02:24:15.017Z,85.592
2023-11-23T02:25:14.749Z,85.709
2023-11-23T02:26:14.252Z,85.703
2023-11-23T02:27:15.072Z,85.773
2023-11-23T02:28:14.753Z,85.732
2023-11-23T02:29:14.293Z,85.716
2023-11-23T02:30:15.159Z,85.718
2023-11-23T02:32:14.733Z,85.459
2023-11-23T02:33:14.649Z,85.474
2023-11-23T02:34:14.586Z,85.430
2023-11-23T02:35:14.058Z,85.611
2023-11-23T02:36:14.816Z,85.518
2023-11-23T02:37:14.428Z,85.381
2023-11-23T02:38:13.944Z,85.417
2023-11-23T02:39:14.720Z,85.627
2023-11-23T02:41:14.831Z,85.613
2023-11-23T02:42:14.561Z,85.632
2023-11-23T02:43:14.276Z,85.516
2023-11-23T02:44:14.885Z,85.524
2023-11-23T02:46:14.380Z,85.499
2023-11-23T02:47:14.166Z,85.522
2023-11-23T02:48:15.098Z,85.533
2023-11-23T02:51:14.036Z,85.361
2023-11-23T02:52:14.718Z,85.382
2023-11-23T02:53:14.232Z,85.489
2023-11-23T02:54:14.862Z,85.596
2023-11-23T02:55:14.603Z,85.611
2023-11-23T02:56:14.095Z,85.632
2023-11-23T02:57:14.768Z,85.648
2023-11-23T02:58:14.348Z,85.779
2023-11-23T02:59:14.904Z,85.709
2023-11-23T03:00:14.765Z,85.999
2023-11-23T03:02:14.484Z,85.728
2023-11-23T03:03:14.786Z,85.640
2023-11-23T03:04:14.846Z,85.680
2023-11-23T03:05:14.549Z,85.567
2023-11-23T03:06:14.227Z,85.630
2023-11-23T03:09:14.362Z,85.833
2023-11-23T03:10:14.304Z,85.972
2023-11-23T03:11:14.801Z,85.882
2023-11-23T03:12:14.433Z,85.850
2023-11-23T03:13:14.083Z,85.836
2023-11-23T03:14:14.620Z,85.873
2023-11-23T03:15:14.337Z,85.945
2023-11-23T03:17:15.020Z,85.955
2023-11-23T03:18:19.721Z,86.037
2023-11-23T03:20:14.475Z,85.909
2023-11-23T03:21:14.330Z,85.985
2023-11-23T03:22:14.925Z,86.063
2023-11-23T03:23:14.430Z,86.029
2023-11-23T03:24:14.091Z,85.855
2023-11-23T03:25:14.855Z,85.964
2023-11-23T03:26:14.347Z,85.878
2023-11-23T03:27:15.042Z,85.781
2023-11-23T03:28:14.714Z,86.117
2023-11-23T03:29:14.248Z,85.966
2023-11-23T03:30:15.057Z,85.932
2023-11-23T03:31:14.607Z,85.972
2023-11-23T03:33:15.180Z,86.332
2023-11-23T03:35:14.686Z,86.136
2023-11-23T03:36:14.361Z,86.189
2023-11-23T03:37:13.948Z,86.245
2023-11-23T03:38:14.470Z,86.401
2023-11-23T03:39:13.988Z,86.788
2023-11-23T03:40:14.726Z,86.840
2023-11-23T03:41:14.293Z,86.803
2023-11-23T03:42:15.058Z,87.078
2023-11-23T03:43:14.821Z,87.185
2023-11-23T03:46:15.101Z,87.286
2023-11-23T03:47:14.871Z,87.240
2023-11-23T03:48:14.857Z,87.221
2023-11-23T03:50:14.253Z,87.269
2023-11-23T03:51:14.997Z,87.318
2023-11-23T03:52:14.741Z,87.112
2023-11-23T03:53:14.296Z,87.126
2023-11-23T03:54:15.209Z,87.137
2023-11-23T03:55:13.970Z,86.956
2023-11-23T03:56:14.451Z,86.897
2023-11-23T03:57:14.094Z,86.853
2023-11-23T03:58:14.741Z,86.727
2023-11-23T03:59:14.316Z,86.765
2023-11-23T04:00:15.328Z,86.922
2023-11-23T04:01:14.105Z,86.758
2023-11-23T04:02:15.185Z,86.937
2023-11-23T04:03:14.419Z,86.948
2023-11-23T04:04:14.434Z,87.044
2023-11-23T04:05:14.008Z,86.994
2023-11-23T04:06:14.641Z,87.072
2023-11-23T04:07:14.247Z,87.263
2023-11-23T04:08:14.745Z,87.252
2023-11-23T04:09:14.488Z,87.187
2023-11-23T04:10:14.137Z,87.090
2023-11-23T04:11:14.645Z,87.313
2023-11-23T04:12:14.225Z,87.488
2023-11-23T04:15:14.277Z,88.099
2023-11-23T04:16:14.149Z,87.851
2023-11-23T04:17:14.809Z,87.990
2023-11-23T04:18:14.501Z,88.217
2023-11-23T04:20:13.945Z,88.287
2023-11-23T04:21:15.037Z,88.375
2023-11-23T04:22:14.602Z,88.369
2023-11-23T04:25:14.465Z,88.585
2023-11-23T04:26:13.970Z,88.541
2023-11-23T04:27:14.775Z,88.459
2023-11-23T04:28:14.672Z,88.671
2023-11-23T04:29:14.164Z,88.793
2023-11-23T04:30:14.963Z,88.774
2023-11-23T04:31:14.547Z,88.858
2023-11-23T04:32:13.998Z,88.995
2023-11-23T04:33:15.540Z,89.312
2023-11-23T04:34:14.902Z,89.176
2023-11-23T04:36:14.655Z,89.523
2023-11-23T04:37:14.308Z,89.296
2023-11-23T04:38:14.795Z,89.464
2023-11-23T04:39:14.577Z,89.243
2023-11-23T04:40:14.288Z,89.359
2023-11-23T04:41:14.788Z,89.459
2023-11-23T04:42:14.462Z,89.403
2023-11-23T04:43:14.169Z,89.186
2023-11-23T04:44:14.780Z,89.411
2023-11-23T04:45:14.332Z,89.655
2023-11-23T04:48:15.041Z,89.546
2023-11-23T04:49:15.019Z,89.546
2023-11-23T04:50:14.545Z,89.476
2023-11-23T04:51:14.357Z,89.586
2023-11-23T04:52:13.977Z,89.354
2023-11-23T04:53:14.542Z,89.544
2023-11-23T04:54:14.221Z,89.651
2023-11-23T04:55:14.913Z,89.407
2023-11-23T04:56:14.447Z,89.506
2023-11-23T04:57:14.157Z,89.794
2023-11-23T04:58:14.854Z,89.548
2023-11-23T05:00:14.546Z,89.903
2023-11-23T05:02:14.411Z,89.680
2023-11-23T05:03:14.444Z,90.006
2023-11-23T05:04:15.990Z,89.775
2023-11-23T05:05:14.900Z,89.848
2023-11-23T05:06:14.507Z,89.796
2023-11-23T05:08:14.828Z,90.458
2023-11-23T05:09:14.517Z,90.155
2023-11-23T05:10:14.112Z,90.231
2023-11-23T05:11:14.683Z,90.027
2023-11-23T05:12:14.283Z,90.111
2023-11-23T05:13:13.972Z,90.033
2023-11-23T05:14:14.533Z,90.143
2023-11-23T05:15:14.222Z,90.309
2023-11-23T05:18:14.600Z,90.195
2023-11-23T05:21:14.462Z,90.818
2023-11-23T05:22:13.976Z,90.954
2023-11-23T05:23:14.475Z,90.782
2023-11-23T05:24:14.146Z,90.902
2023-11-23T05:25:14.847Z,90.843
2023-11-23T05:26:14.384Z,90.805
2023-11-23T05:27:13.954Z,90.897
2023-11-23T05:28:14.705Z,90.897
2023-11-23T05:29:14.231Z,91.055
2023-11-23T05:30:15.037Z,90.933
2023-11-23T05:32:14.588Z,90.611
2023-11-23T05:34:14.587Z,90.956
2023-11-23T05:35:14.227Z,90.815
2023-11-23T05:36:14.999Z,91.173
2023-11-23T05:38:14.074Z,90.990
2023-11-23T05:39:14.990Z,91.023
2023-11-23T05:40:15.188Z,91.120
2023-11-23T05:42:15.131Z,91.299
2023-11-23T05:43:15.696Z,91.642
2023-11-23T05:44:14.208Z,91.608
2023-11-23T05:45:14.938Z,91.789
2023-11-23T05:46:18.588Z,91.337
2023-11-23T05:48:14.073Z,91.137
2023-11-23T05:49:14.735Z,91.156
2023-11-23T05:50:14.228Z,91.280
2023-11-23T05:51:14.908Z,91.133
2023-11-23T05:52:14.555Z,91.284
2023-11-23T05:53:13.988Z,91.198
2023-11-23T05:54:14.878Z,91.305
2023-11-23T05:55:14.496Z,91.534
2023-11-23T05:56:13.994Z,91.354
2023-11-23T05:57:14.728Z,91.269
2023-11-23T05:58:14.409Z,91.337
2023-11-23T05:59:13.924Z,91.221
2023-11-23T06:00:14.577Z,91.238
2023-11-23T06:01:17.960Z,90.977
2023-11-23T06:04:15.489Z,91.147
2023-11-23T06:05:15.552Z,91.084
2023-11-23T06:07:13.888Z,90.994
2023-11-23T06:08:14.460Z,90.496
2023-11-23T06:09:14.076Z,90.452
2023-11-23T06:10:14.832Z,90.557
2023-11-23T06:11:14.366Z,90.612
2023-11-23T06:12:14.941Z,90.717
2023-11-23T06:13:14.523Z,90.929
2023-11-23T06:14:14.014Z,90.864
2023-11-23T06:16:14.832Z,90.807
2023-11-23T06:18:19.951Z,90.466
2023-11-23T06:19:14.711Z,90.494
2023-11-23T06:21:14.496Z,90.168
2023-11-23T06:22:14.043Z,90.233
2023-11-23T06:23:14.620Z,90.107
2023-11-23T06:24:14.303Z,89.974
2023-11-23T06:25:13.919Z,89.941
2023-11-23T06:26:14.489Z,89.993
2023-11-23T06:27:14.273Z,89.987
2023-11-23T06:28:18.962Z,89.886
2023-11-23T06:31:14.846Z,89.958
2023-11-23T06:32:14.564Z,89.787
2023-11-23T06:33:14.550Z,89.838
2023-11-23T06:34:14.476Z,89.827
2023-11-23T06:35:13.949Z,89.785
2023-11-23T06:36:14.698Z,89.764
2023-11-23T06:38:14.144Z,89.596
2023-11-23T06:39:14.875Z,89.861
2023-11-23T06:40:14.547Z,89.741
2023-11-23T06:41:14.050Z,89.502
2023-11-23T06:42:14.847Z,89.457
2023-11-23T06:43:14.579Z,89.504
2023-11-23T06:44:14.129Z,89.310
2023-11-23T06:45:14.858Z,89.300
2023-11-23T06:47:14.758Z,89.335
2023-11-23T06:48:14.729Z,89.293
2023-11-23T06:49:17.249Z,89.171
2023-11-23T06:50:14.779Z,88.903
2023-11-23T06:51:14.380Z,89.037
2023-11-23T06:54:14.350Z,88.825
2023-11-23T06:55:14.101Z,88.860
2023-11-23T06:56:14.706Z,88.749
2023-11-23T06:57:14.256Z,88.770
2023-11-23T06:58:14.487Z,88.930
2023-11-23T07:02:14.915Z,89.109
2023-11-23T07:03:14.972Z,89.098
2023-11-23T07:04:17.567Z,89.195
2023-11-23T07:05:14.152Z,89.241
2023-11-23T07:06:15.325Z,89.256
2023-11-23T07:07:14.120Z,89.191
2023-11-23T07:08:14.914Z,89.256
2023-11-23T07:09:15.675Z,89.396
2023-11-23T07:10:19.811Z,89.514
2023-11-23T07:11:14.213Z,89.508
2023-11-23T07:12:14.962Z,89.218
2023-11-23T07:13:14.824Z,89.254
2023-11-23T07:14:15.580Z,89.382
2023-11-23T07:15:14.508Z,89.327
2023-11-23T07:16:14.458Z,89.356
2023-11-23T07:17:14.776Z,89.220
2023-11-23T07:18:15.370Z,89.159
2023-11-23T07:19:14.731Z,89.109
2023-11-23T07:20:14.406Z,88.940
2023-11-23T07:21:15.350Z,88.745
2023-11-23T07:22:14.064Z,88.783
2023-11-23T07:23:14.676Z,88.581
2023-11-23T07:24:14.234Z,88.430
2023-11-23T07:25:13.940Z,88.160
2023-11-23T07:26:14.568Z,88.089
2023-11-23T07:27:14.332Z,87.961
2023-11-23T07:28:14.006Z,87.790
2023-11-23T07:29:14.493Z,87.709
2023-11-23T07:30:14.467Z,87.719
2023-11-23T07:33:14.898Z,87.482
2023-11-23T07:35:14.612Z,87.261
2023-11-23T07:36:14.350Z,87.006
2023-11-23T07:37:14.029Z,86.733
2023-11-23T07:38:16.262Z,86.575
2023-11-23T07:39:14.961Z,86.720
2023-11-23T07:40:15.584Z,86.723
2023-11-23T07:41:14.395Z,86.498
2023-11-23T07:42:16.231Z,86.229
2023-11-23T07:43:14.804Z,86.500
2023-11-23T07:44:14.327Z,86.638
2023-11-23T07:45:15.206Z,86.552
2023-11-23T07:46:14.006Z,86.531
2023-11-23T07:47:14.889Z,86.325
2023-11-23T07:48:14.745Z,86.344
2023-11-23T07:49:14.381Z,86.330
2023-11-23T07:50:13.889Z,86.044
2023-11-23T07:51:14.519Z,86.241
2023-11-23T07:53:14.773Z,85.993
2023-11-23T07:54:14.363Z,86.063
2023-11-23T07:55:14.074Z,85.823
2023-11-23T07:56:14.616Z,85.712
2023-11-23T07:57:14.309Z,85.703
2023-11-23T07:58:14.363Z,85.716
2023-11-23T07:59:14.198Z,85.602
2023-11-23T08:00:15.796Z,85.764
2023-11-23T08:01:14.704Z,85.962
2023-11-23T08:02:14.297Z,85.611
2023-11-23T08:03:15.211Z,85.737
2023-11-23T08:04:14.567Z,86.039
2023-11-23T08:05:14.864Z,85.648
2023-11-23T08:06:14.607Z,85.295
2023-11-23T08:07:14.711Z,85.375
2023-11-23T08:08:14.318Z,85.567
2023-11-23T08:09:15.176Z,85.382
2023-11-23T08:10:14.823Z,85.241
2023-11-23T08:11:14.290Z,85.203
2023-11-23T08:12:14.976Z,85.094
2023-11-23T08:13:14.760Z,84.948
2023-11-23T08:14:14.366Z,85.180
2023-11-23T08:16:14.034Z,85.052
2023-11-23T08:17:14.889Z,84.980
2023-11-23T08:18:14.728Z,85.062
2023-11-23T08:19:14.778Z,85.079
2023-11-23T08:21:14.260Z,85.098
2023-11-23T08:22:14.817Z,85.182
2023-11-23T08:24:14.343Z,85.121
2023-11-23T08:25:13.973Z,85.123
2023-11-23T08:26:14.515Z,84.970
2023-11-23T08:27:14.155Z,84.877
2023-11-23T08:28:14.799Z,85.012
2023-11-23T08:29:14.485Z,85.350
2023-11-23T08:30:14.158Z,84.942
2023-11-23T08:31:14.374Z,85.787
2023-11-23T08:32:14.250Z,85.907
2023-11-23T08:33:15.114Z,86.004
2023-11-23T08:34:13.897Z,85.224
2023-11-23T08:35:14.414Z,85.150
2023-11-23T08:36:14.083Z,85.278
2023-11-23T08:37:13.922Z,85.276
2023-11-23T08:38:14.545Z,85.161
2023-11-23T08:40:13.974Z,85.350
2023-11-23T08:41:14.544Z,85.196
2023-11-23T08:42:14.278Z,85.083
2023-11-23T08:43:14.016Z,85.304
2023-11-23T08:44:14.841Z,85.472
2023-11-23T08:45:14.957Z,85.180
2023-11-23T08:46:14.747Z,85.461
2023-11-23T08:47:14.523Z,85.384
2023-11-23T08:49:14.160Z,85.609
2023-11-23T08:50:14.693Z,86.052
2023-11-23T08:51:14.422Z,86.054
2023-11-23T08:52:14.095Z,86.178
2023-11-23T08:53:14.839Z,86.123
2023-11-23T08:54:14.518Z,86.058
2023-11-23T08:55:14.146Z,85.936
2023-11-23T08:56:17.522Z,85.770
2023-11-23T08:57:14.248Z,85.564
2023-11-23T08:58:14.892Z,85.258
2023-11-23T08:59:14.359Z,85.270
2023-11-23T09:00:14.422Z,85.379
2023-11-23T09:02:24.892Z,85.613
2023-11-23T09:03:15.126Z,85.711
2023-11-23T09:04:15.537Z,85.857
2023-11-23T09:05:15.081Z,86.338
2023-11-23T09:06:14.435Z,85.960
2023-11-23T09:07:14.237Z,85.930
2023-11-23T09:08:14.356Z,85.680
2023-11-23T09:09:14.971Z,85.459
2023-11-23T09:10:14.605Z,85.543
2023-11-23T09:11:14.241Z,85.625
2023-11-23T09:12:14.991Z,85.552
2023-11-23T09:13:14.660Z,85.445
2023-11-23T09:14:14.187Z,85.630
2023-11-23T09:15:15.039Z,85.844
2023-11-23T09:16:14.934Z,85.842
2023-11-23T09:18:14.439Z,85.634
2023-11-23T09:19:14.716Z,85.592
2023-11-23T09:20:14.380Z,85.649
2023-11-23T09:22:15.243Z,85.649
2023-11-23T09:24:14.642Z,85.825
2023-11-23T09:25:14.277Z,85.737
2023-11-23T09:26:14.807Z,85.751
2023-11-23T09:27:14.531Z,85.848
2023-11-23T09:28:14.088Z,85.394
2023-11-23T09:29:14.678Z,85.327
2023-11-23T09:30:14.485Z,85.402
2023-11-23T09:31:14.263Z,85.386
2023-11-23T09:34:14.799Z,85.117
2023-11-23T09:35:14.686Z,85.251
2023-11-23T09:36:14.377Z,85.167
2023-11-23T09:37:14.091Z,84.829
2023-11-23T09:38:14.646Z,85.117
2023-11-23T09:39:14.518Z,85.030
2023-11-23T09:40:14.788Z,84.743
2023-11-23T09:41:14.431Z,84.566
2023-11-23T09:42:13.983Z,84.482
2023-11-23T09:43:14.704Z,84.316
2023-11-23T09:44:14.212Z,84.499
2023-11-23T09:45:15.026Z,84.200
2023-11-23T09:47:13.957Z,84.181
2023-11-23T09:48:15.088Z,84.171
2023-11-23T09:49:14.624Z,84.225
2023-11-23T09:50:14.390Z,84.421
2023-11-23T09:51:14.090Z,84.572
2023-11-23T09:52:14.761Z,84.679
2023-11-23T09:53:14.669Z,84.911
2023-11-23T09:54:14.419Z,84.766
2023-11-23T09:56:14.636Z,84.690
2023-11-23T09:57:14.322Z,84.806
2023-11-23T09:58:13.957Z,84.658
2023-11-23T09:59:14.554Z,84.745
2023-11-23T10:00:14.262Z,85.236
2023-11-23T10:01:14.004Z,84.732
2023-11-23T10:02:16.175Z,84.948
2023-11-23T10:03:15.170Z,84.883
2023-11-23T10:04:14.389Z,84.898
2023-11-23T10:05:14.786Z,84.909
2023-11-23T10:06:14.586Z,85.608
2023-11-23T10:07:14.307Z,84.890
2023-11-23T10:08:14.844Z,84.803
2023-11-23T10:09:14.492Z,84.654
2023-11-23T10:12:14.549Z,84.270
2023-11-23T10:13:15.364Z,84.322
2023-11-23T10:14:13.946Z,84.051
2023-11-23T10:15:14.959Z,83.963
2023-11-23T10:16:14.993Z,83.775
2023-11-23T10:17:14.815Z,83.757
2023-11-23T10:20:14.388Z,83.330
2023-11-23T10:21:14.038Z,83.376
2023-11-23T10:22:14.712Z,83.601
2023-11-23T10:23:14.553Z,83.410
2023-11-23T10:24:14.214Z,83.343
2023-11-23T10:25:13.930Z,83.342
2023-11-23T10:26:14.550Z,83.307
2023-11-23T10:28:14.261Z,83.538
2023-11-23T10:29:16.412Z,83.239
2023-11-23T10:30:14.132Z,83.355
2023-11-23T10:31:18.461Z,83.483
2023-11-23T10:34:14.742Z,83.075
2023-11-23T10:35:14.348Z,83.979
2023-11-23T10:36:15.261Z,83.788
2023-11-23T10:37:13.941Z,83.792
2023-11-23T10:38:14.558Z,83.282
2023-11-23T10:40:17.888Z,83.540
2023-11-23T10:41:14.429Z,83.593
2023-11-23T10:42:14.122Z,83.534
2023-11-23T10:43:14.690Z,83.265
2023-11-23T10:44:14.122Z,83.225
2023-11-23T10:45:14.844Z,82.779
2023-11-23T10:46:14.689Z,82.863
2023-11-23T10:47:14.352Z,82.891
2023-11-23T10:48:15.699Z,82.668
2023-11-23T10:49:14.661Z,82.975
2023-11-23T10:50:14.172Z,82.577
2023-11-23T10:51:14.891Z,82.666
2023-11-23T10:52:14.546Z,82.811
2023-11-23T10:53:14.109Z,82.920
2023-11-23T10:54:14.831Z,82.624
2023-11-23T10:55:14.490Z,82.624
2023-11-23T10:56:17.662Z,82.668
2023-11-23T10:57:14.309Z,82.525
2023-11-23T10:58:14.793Z,82.539
2023-11-23T10:59:14.315Z,82.075
2023-11-23T11:00:15.264Z,82.634
2023-11-23T11:01:15.037Z,82.655
2023-11-23T11:02:15.053Z,82.455
2023-11-23T11:03:14.878Z,82.649
2023-11-23T11:04:15.122Z,82.535
2023-11-23T11:06:14.916Z,82.544
2023-11-23T11:08:14.637Z,82.399
2023-11-23T11:09:14.786Z,82.893
2023-11-23T11:10:14.385Z,82.649
2023-11-23T11:11:13.950Z,82.529
2023-11-23T11:12:14.725Z,82.790
2023-11-23T11:13:14.757Z,82.672
2023-11-23T11:14:14.548Z,82.796
2023-11-23T11:16:14.098Z,82.693
2023-11-23T11:17:14.670Z,82.609
2023-11-23T11:18:14.880Z,82.680
2023-11-23T11:20:14.340Z,82.363
2023-11-23T11:21:15.413Z,82.729
2023-11-23T11:22:14.395Z,82.821
2023-11-23T11:23:14.036Z,82.603
2023-11-23T11:24:14.829Z,82.422
2023-11-23T11:25:14.712Z,82.531
2023-11-23T11:26:14.732Z,82.424
2023-11-23T11:27:14.850Z,82.478
2023-11-23T11:28:14.449Z,82.390
2023-11-23T11:29:14.024Z,82.409
2023-11-23T11:30:14.773Z,82.567
2023-11-23T11:31:15.265Z,82.405
2023-11-23T11:32:14.193Z,82.582
2023-11-23T11:33:15.130Z,82.214
2023-11-23T11:34:14.257Z,82.586
2023-11-23T11:35:14.824Z,82.495
2023-11-23T11:36:14.728Z,82.531
2023-11-23T11:38:14.278Z,82.247
2023-11-23T11:39:15.295Z,82.720
2023-11-23T11:40:14.823Z,82.872
2023-11-23T11:41:14.396Z,82.628
2023-11-23T11:42:14.304Z,82.821
2023-11-23T11:45:14.466Z,82.838
2023-11-23T11:46:14.575Z,82.905
2023-11-23T11:47:14.979Z,82.685
2023-11-23T11:48:14.834Z,82.931
2023-11-23T11:49:14.861Z,83.099
2023-11-23T11:50:14.582Z,82.808
2023-11-23T11:51:14.161Z,83.147
2023-11-23T11:52:14.036Z,82.849
2023-11-23T11:53:14.758Z,82.956
2023-11-23T11:54:14.414Z,82.911
2023-11-23T11:55:14.252Z,82.918
2023-11-23T11:56:14.901Z,82.954
2023-11-23T11:57:14.716Z,83.055
2023-11-23T11:58:14.462Z,83.204
2023-11-23T11:59:13.956Z,83.021
2023-11-23T12:00:14.818Z,83.298
2023-11-23T12:01:14.454Z,83.248
2023-11-23T12:02:14.445Z,83.281
2023-11-23T12:03:15.083Z,83.147
2023-11-23T12:04:15.449Z,83.343
2023-11-23T12:05:14.226Z,83.315
2023-11-23T12:06:15.658Z,83.279
2023-11-23T12:07:14.328Z,83.082
2023-11-23T12:08:13.912Z,83.151
2023-11-23T12:09:14.552Z,83.355
2023-11-23T12:10:14.235Z,83.082
2023-11-23T12:11:14.748Z,83.361
2023-11-23T12:12:15.043Z,83.206
2023-11-23T12:13:13.831Z,82.994
2023-11-23T12:14:14.316Z,83.668
2023-11-23T12:16:13.901Z,82.859
2023-11-23T12:17:15.409Z,83.075
2023-11-23T12:18:14.217Z,83.002
2023-11-23T12:19:13.936Z,82.968
2023-11-23T12:20:14.512Z,82.739
2023-11-23T12:21:14.286Z,82.893
2023-11-23T12:22:13.979Z,83.309
2023-11-23T12:23:14.548Z,82.981
2023-11-23T12:24:14.200Z,83.006
2023-11-23T12:25:14.216Z,82.960
2023-11-23T12:26:14.928Z,82.745
2023-11-23T12:27:15.522Z,83.218
2023-11-23T12:28:14.690Z,83.082
2023-11-23T12:29:14.774Z,83.094
2023-11-23T12:30:14.653Z,83.101
2023-11-23T12:31:14.344Z,82.958
2023-11-23T12:34:14.936Z,83.239
2023-11-23T12:35:14.492Z,83.036
2023-11-23T12:36:14.376Z,83.004
2023-11-23T12:37:14.100Z,82.983
2023-11-23T12:38:14.802Z,83.099
2023-11-23T12:40:14.281Z,83.071
2023-11-23T12:41:17.730Z,83.231
2023-11-23T12:43:13.949Z,82.960
2023-11-23T12:44:14.540Z,83.000
2023-11-23T12:45:14.248Z,83.521
2023-11-23T12:46:14.350Z,83.103
2023-11-23T12:47:14.615Z,83.111
2023-11-23T12:48:14.450Z,83.364
2023-11-23T12:50:15.078Z,83.141
2023-11-23T12:51:14.715Z,83.370
2023-11-23T12:52:14.262Z,83.338
2023-11-23T12:53:14.777Z,83.092
2023-11-23T12:54:14.391Z,83.139
2023-11-23T12:55:13.957Z,83.141
2023-11-23T12:56:14.587Z,82.790
2023-11-23T12:57:14.247Z,82.983
2023-11-23T13:00:14.356Z,82.989
2023-11-23T13:01:13.991Z,83.199
2023-11-23T13:02:14.850Z,83.302
2023-11-23T13:03:15.149Z,83.084
2023-11-23T13:04:15.818Z,82.991
2023-11-23T13:05:14.751Z,83.166
2023-11-23T13:06:14.380Z,83.385
2023-11-23T13:07:14.166Z,83.134
2023-11-23T13:08:14.861Z,83.170
2023-11-23T13:10:14.485Z,83.282
2023-11-23T13:11:14.028Z,83.302
2023-11-23T13:12:15.049Z,83.147
2023-11-23T13:13:14.672Z,83.256
2023-11-23T13:14:14.219Z,83.109
2023-11-23T13:15:15.342Z,83.382
2023-11-23T13:16:14.041Z,83.624
2023-11-23T13:17:14.980Z,83.427
2023-11-23T13:18:15.659Z,83.675
2023-11-23T13:19:30.482Z,83.700
2023-11-23T13:21:14.346Z,83.590
2023-11-23T13:22:14.167Z,83.551
2023-11-23T13:23:14.693Z,83.721
2023-11-23T13:24:14.318Z,83.462
2023-11-23T13:25:13.998Z,83.563
2023-11-23T13:26:14.575Z,83.448
2023-11-23T13:27:14.227Z,83.336
2023-11-23T13:28:14.917Z,83.513
2023-11-23T13:29:14.521Z,83.422
2023-11-23T13:30:14.274Z,83.557
2023-11-23T13:31:14.289Z,83.668
2023-11-23T13:32:14.925Z,84.049
2023-11-23T13:33:14.983Z,83.654
2023-11-23T13:34:13.887Z,83.910
2023-11-23T13:35:14.780Z,83.866
2023-11-23T13:36:14.363Z,83.822
2023-11-23T13:37:14.140Z,83.706
2023-11-23T13:38:14.811Z,83.731
2023-11-23T13:39:17.905Z,83.738
2023-11-23T13:42:14.833Z,83.878
2023-11-23T13:43:14.652Z,83.954
2023-11-23T13:45:18.805Z,83.958
2023-11-23T13:46:14.551Z,83.992
2023-11-23T13:47:14.275Z,83.895
2023-11-23T13:48:14.498Z,83.868
2023-11-23T13:49:14.573Z,84.101
2023-11-23T13:50:14.202Z,84.171
2023-11-23T13:51:14.875Z,84.166
2023-11-23T13:52:14.134Z,84.415
2023-11-23T13:53:14.685Z,84.200
2023-11-23T13:54:14.447Z,84.341
2023-11-23T13:55:14.125Z,84.229
2023-11-23T13:56:14.681Z,84.255
2023-11-23T13:58:14.068Z,84.293
2023-11-23T13:59:14.932Z,84.478
2023-11-23T14:00:14.550Z,84.196
2023-11-23T14:01:14.218Z,84.108
2023-11-23T14:02:14.574Z,84.517
2023-11-23T14:03:15.710Z,84.505
2023-11-23T14:04:14.984Z,84.406
2023-11-23T14:05:14.663Z,84.316
2023-11-23T14:07:13.942Z,84.400
2023-11-23T14:08:14.604Z,84.663
2023-11-23T14:09:14.381Z,84.763
2023-11-23T14:10:13.987Z,84.740
2023-11-23T14:11:14.535Z,84.476
2023-11-23T14:12:14.240Z,84.581
2023-11-23T14:14:14.648Z,84.784
2023-11-23T14:15:17.243Z,84.375
2023-11-23T14:16:14.224Z,84.780
2023-11-23T14:17:14.830Z,84.789
2023-11-23T14:19:14.665Z,84.953
2023-11-23T14:20:14.003Z,84.801
2023-11-23T14:21:15.074Z,84.917
2023-11-23T14:24:15.096Z,84.801
2023-11-23T14:25:14.793Z,84.988
2023-11-23T14:26:14.405Z,85.136
2023-11-23T14:27:14.174Z,85.400
2023-11-23T14:28:14.897Z,85.190
2023-11-23T14:31:14.149Z,85.327
2023-11-23T14:32:14.736Z,85.243
2023-11-23T14:33:14.591Z,85.163